Карточка аэропорта UIAA

Внимание!
Информация на этой странице в стадии наполнения.
Если вы не увидели какой-то информации, или заметили неточность - пожалуйста сообщите нам!
Спасибо!
Команда RU-STAFF
Название аэропортаКадала
Название аэропорта (англ.)Kadala
Превышение2271 ft. (692.2 m.)
Координаты52°1.5779999999999', 113°18.3'
Высота перехода1800m
Эшелон переходаFL100
Коды ответчика3350-3377
Зона ОрВДИркутск РПИ (UIII)
Данные METARUIAA 140130Z VRB01MPS 9999 FEW006 15/11 Q1012 R29/CLRD70 NOSIG RMK QBB200 MT OBSC QFE701/0934
Проноз погоды (TAF)UIAA 132000Z 1321/1421 28003MPS 0500 FG VV001 TEMPO 1321/1401 3100 BR SCT003 BECMG 1401/1402 9999 NSW SCT040CB TEMPO 1402/1412 34005G10MPS 3100 -TSRA OVC014CB
NOTAMshow/hide NOTAM
AWOS   TABLE

Информация о ВПП


Диспетчерские позиции

Позывной Наименование органа УВД Частота
UIAA_TWRЧита-Вышка118.2
UIAA_APPЧита-Подход122.0



Спутниковое изображение